Time;durP1;ratioP1;P1;durP2;ratioP2;P2;SDS_P1;SDS_P2;PMS_P1;PMS_P2;Temp;Humidity;BMP_temperature;BMP_pressure;BME280_temperature;BME280_humidity;BME280_pressure;Samples;Min_cycle;Max_cycle;Signal;HPM_P1;HPM_P2
2022/10/28 00:00:40;;;;;;;0.00;0.00;;;;;;;;;;1740960;28;20231;-71
2022/10/28 00:01:32;;;;;;;0.00;0.00;;;;;;;;;;1740213;28;20252;-71
2022/10/28 00:02:23;;;;;;;0.00;0.00;;;;;;;;;;1740423;28;20257;-71
2022/10/28 00:03:15;;;;;;;0.00;0.00;;;;;;;;;;1740448;28;20235;-71
2022/10/28 00:04:06;;;;;;;0.00;0.00;;;;;;;;;;1740669;28;20241;-71
2022/10/28 00:04:58;;;;;;;0.00;0.00;;;;;;;;;;1740652;28;20222;-71
2022/10/28 00:05:49;;;;;;;0.00;0.00;;;;;;;;;;1740412;28;20598;-71
2022/10/28 00:06:41;;;;;;;0.00;0.00;;;;;;;;;;1740614;28;20712;-71
2022/10/28 00:07:32;;;;;;;0.00;0.00;;;;;;;;;;1740438;28;20294;-71
2022/10/28 00:08:24;;;;;;;0.00;0.00;;;;;;;;;;1740724;28;20265;-71
2022/10/28 00:09:16;;;;;;;0.00;0.00;;;;;;;;;;1740096;28;20209;-71
2022/10/28 00:10:08;;;;;;;0.00;0.00;;;;;;;;;;1741235;28;20203;-71
2022/10/28 00:11:03;;;;;;;0.00;0.00;;;;;;;;;;1740357;28;20260;-70
2022/10/28 00:11:55;;;;;;;0.00;0.00;;;;;;;;;;1740569;28;20544;-70
2022/10/28 00:12:46;;;;;;;0.00;0.00;;;;;;;;;;1740634;28;20284;-70
2022/10/28 00:13:39;;;;;;;0.00;0.00;;;;;;;;;;1740540;28;20207;-70
2022/10/28 00:14:30;;;;;;;0.00;0.00;;;;;;;;;;1740437;28;20219;-70
2022/10/28 00:15:23;;;;;;;0.00;0.00;;;;;;;;;;1740681;28;20203;-70
2022/10/28 00:16:15;;;;;;;0.00;0.00;;;;;;;;;;1739821;28;20628;-70
2022/10/28 00:17:07;;;;;;;0.00;0.00;;;;;;;;;;1740420;28;20532;-70
2022/10/28 00:17:58;;;;;;;0.00;0.00;;;;;;;;;;1740441;28;20597;-70
2022/10/28 00:18:52;;;;;;;0.00;0.00;;;;;;;;;;1740785;28;20195;-70
2022/10/28 00:19:43;;;;;;;0.00;0.00;;;;;;;;;;1740209;28;20222;-70
2022/10/28 00:20:35;;;;;;;0.00;0.00;;;;;;;;;;1741118;28;20277;-70
2022/10/28 00:21:27;;;;;;;0.00;0.00;;;;;;;;;;1740093;28;20322;-70
2022/10/28 00:22:19;;;;;;;0.00;0.00;;;;;;;;;;1740041;28;20623;-71
2022/10/28 00:23:10;;;;;;;0.00;0.00;;;;;;;;;;1740401;28;20721;-71
2022/10/28 00:24:02;;;;;;;0.00;0.00;;;;;;;;;;1740589;28;20282;-71
2022/10/28 00:24:53;;;;;;;0.00;0.00;;;;;;;;;;1740604;28;20581;-70
2022/10/28 00:25:44;;;;;;;0.00;0.00;;;;;;;;;;1740839;28;20230;-70
2022/10/28 00:26:37;;;;;;;0.00;0.00;;;;;;;;;;1740533;28;20203;-70
2022/10/28 00:27:28;;;;;;;0.00;0.00;;;;;;;;;;1740216;28;20660;-70
2022/10/28 00:28:20;;;;;;;0.00;0.00;;;;;;;;;;1740489;28;20203;-70
2022/10/28 00:29:12;;;;;;;0.00;0.00;;;;;;;;;;1740646;28;20241;-71
2022/10/28 00:30:05;;;;;;;0.00;0.00;;;;;;;;;;1740758;28;20682;-70
2022/10/28 00:31:02;;;;;;;0.00;0.00;;;;;;;;;;1740509;28;20237;-71
2022/10/28 00:31:54;;;;;;;0.00;0.00;;;;;;;;;;1740293;28;20195;-72
2022/10/28 00:32:45;;;;;;;0.00;0.00;;;;;;;;;;1740193;28;20234;-71
2022/10/28 00:33:37;;;;;;;0.00;0.00;;;;;;;;;;1740664;28;20230;-71
2022/10/28 00:34:28;;;;;;;0.00;0.00;;;;;;;;;;1740089;28;20758;-71
2022/10/28 00:35:21;;;;;;;0.00;0.00;;;;;;;;;;1740879;28;20289;-72
2022/10/28 00:36:13;;;;;;;0.00;0.00;;;;;;;;;;1740196;28;20202;-71
2022/10/28 00:37:05;;;;;;;0.00;0.00;;;;;;;;;;1740661;28;20199;-71
2022/10/28 00:37:56;;;;;;;0.00;0.00;;;;;;;;;;1740010;28;20237;-71
2022/10/28 00:38:49;;;;;;;0.00;0.00;;;;;;;;;;1740345;28;20286;-71
2022/10/28 00:39:40;;;;;;;0.00;0.00;;;;;;;;;;1740290;28;20333;-70
2022/10/28 00:40:34;;;;;;;0.00;0.00;;;;;;;;;;1747454;28;20297;-70
2022/10/28 00:41:26;;;;;;;0.00;0.00;;;;;;;;;;1747270;28;20674;-71
2022/10/28 00:42:21;;;;;;;0.00;0.00;;;;;;;;;;1747032;28;20233;-70
2022/10/28 00:43:12;;;;;;;0.00;0.00;;;;;;;;;;1746864;28;20322;-71
2022/10/28 00:44:24;;;;;;;0.00;0.00;;;;;;;;;;1747131;28;20571;-71
2022/10/28 00:45:15;;;;;;;0.00;0.00;;;;;;;;;;1747768;28;20675;-70
2022/10/28 00:46:13;;;;;;;0.00;0.00;;;;;;;;;;1747167;28;20209;-72
2022/10/28 00:47:05;;;;;;;0.00;0.00;;;;;;;;;;1741120;28;20246;-72
2022/10/28 00:47:59;;;;;;;0.00;0.00;;;;;;;;;;1740182;28;20650;-71
2022/10/28 00:48:52;;;;;;;0.00;0.00;;;;;;;;;;1736852;28;20298;-71
2022/10/28 00:49:45;;;;;;;0.00;0.00;;;;;;;;;;1740022;28;20290;-71
2022/10/28 00:50:43;;;;;;;0.00;0.00;;;;;;;;;;1740450;28;20326;-71
2022/10/28 00:51:36;;;;;;;0.00;0.00;;;;;;;;;;1740043;28;20237;-70
2022/10/28 00:52:29;;;;;;;0.00;0.00;;;;;;;;;;1740035;28;20253;-70
2022/10/28 00:53:23;;;;;;;0.00;0.00;;;;;;;;;;1740267;28;20202;-71
2022/10/28 00:54:14;;;;;;;0.00;0.00;;;;;;;;;;1739976;28;20230;-71
2022/10/28 00:55:07;;;;;;;0.00;0.00;;;;;;;;;;1740641;28;20205;-71
2022/10/28 00:55:59;;;;;;;0.00;0.00;;;;;;;;;;1740216;28;20656;-72
2022/10/28 00:56:53;;;;;;;0.00;0.00;;;;;;;;;;1740396;28;20199;-71
2022/10/28 00:57:45;;;;;;;0.00;0.00;;;;;;;;;;1740179;28;20242;-72
2022/10/28 00:58:37;;;;;;;0.00;0.00;;;;;;;;;;1740300;28;20305;-72
2022/10/28 00:59:31;;;;;;;0.00;0.00;;;;;;;;;;1739790;28;20373;-72
2022/10/28 01:00:24;;;;;;;0.00;0.00;;;;;;;;;;1740530;28;20194;-72
2022/10/28 01:01:16;;;;;;;0.00;0.00;;;;;;;;;;1739935;28;20335;-71
2022/10/28 01:02:08;;;;;;;0.00;0.00;;;;;;;;;;1740219;28;20207;-71
2022/10/28 01:02:59;;;;;;;0.00;0.00;;;;;;;;;;1740125;28;20214;-72
2022/10/28 01:03:52;;;;;;;0.00;0.00;;;;;;;;;;1740342;28;20650;-72
2022/10/28 01:04:43;;;;;;;0.00;0.00;;;;;;;;;;1740123;28;20294;-72
2022/10/28 01:05:37;;;;;;;0.00;0.00;;;;;;;;;;1740445;28;20198;-71
2022/10/28 01:06:29;;;;;;;0.00;0.00;;;;;;;;;;1739994;28;20301;-72
2022/10/28 01:07:21;;;;;;;0.00;0.00;;;;;;;;;;1740501;28;20286;-72
2022/10/28 01:08:12;;;;;;;0.00;0.00;;;;;;;;;;1740270;28;20241;-71
2022/10/28 01:09:04;;;;;;;0.00;0.00;;;;;;;;;;1740117;28;20198;-71
2022/10/28 01:09:56;;;;;;;0.00;0.00;;;;;;;;;;1746974;28;20676;-71
2022/10/28 01:11:03;;;;;;;0.00;0.00;;;;;;;;;;1747036;28;20233;-72
2022/10/28 01:11:59;;;;;;;0.00;0.00;;;;;;;;;;1747035;28;20244;-70
2022/10/28 01:12:59;;;;;;;0.00;0.00;;;;;;;;;;1747028;28;20632;-71
2022/10/28 01:13:57;;;;;;;0.00;0.00;;;;;;;;;;1747164;28;20248;-70
2022/10/28 01:15:00;;;;;;;0.00;0.00;;;;;;;;;;1747094;28;20290;-71
2022/10/28 01:15:53;;;;;;;0.00;0.00;;;;;;;;;;1746946;28;20703;-72
2022/10/28 01:16:52;;;;;;;0.00;0.00;;;;;;;;;;1747237;28;20197;-70
2022/10/28 01:17:49;;;;;;;0.00;0.00;;;;;;;;;;1746882;28;20233;-70
2022/10/28 01:18:46;;;;;;;0.00;0.00;;;;;;;;;;1742078;28;20265;-70
2022/10/28 01:19:52;;;;;;;0.00;0.00;;;;;;;;;;1739943;28;20656;-70
2022/10/28 01:20:52;;;;;;;0.00;0.00;;;;;;;;;;1719293;28;20209;-70
2022/10/28 01:21:52;;;;;;;0.00;0.00;;;;;;;;;;1731867;28;20238;-70
2022/10/28 01:22:47;;;;;;;0.00;0.00;;;;;;;;;;1740014;28;20309;-70
2022/10/28 01:23:44;;;;;;;0.00;0.00;;;;;;;;;;1740234;28;20762;-71
2022/10/28 01:24:41;;;;;;;0.00;0.00;;;;;;;;;;1740235;28;20210;-70
2022/10/28 01:25:46;;;;;;;0.00;0.00;;;;;;;;;;1747384;28;20641;-70
2022/10/28 01:26:51;;;;;;;0.00;0.00;;;;;;;;;;1746843;28;20226;-71
2022/10/28 01:27:58;;;;;;;0.00;0.00;;;;;;;;;;1746771;28;20536;-71
2022/10/28 01:29:07;;;;;;;0.00;0.00;;;;;;;;;;1744428;28;20245;-72
2022/10/28 01:30:11;;;;;;;0.00;0.00;;;;;;;;;;1746825;28;20225;-71
2022/10/28 01:31:08;;;;;;;0.00;0.00;;;;;;;;;;1746872;28;20199;-70
2022/10/28 01:32:04;;;;;;;0.00;0.00;;;;;;;;;;1746348;28;20282;-70
2022/10/28 01:32:59;;;;;;;0.00;0.00;;;;;;;;;;1747042;28;20233;-71
2022/10/28 01:33:52;;;;;;;0.00;0.00;;;;;;;;;;1747141;28;20525;-70
2022/10/28 01:34:49;;;;;;;0.00;0.00;;;;;;;;;;1746850;28;20264;-71
2022/10/28 01:35:45;;;;;;;0.00;0.00;;;;;;;;;;1747589;28;20281;-71
2022/10/28 01:36:39;;;;;;;0.00;0.00;;;;;;;;;;1746745;28;20730;-72
2022/10/28 01:37:32;;;;;;;0.00;0.00;;;;;;;;;;1746600;28;20221;-72
2022/10/28 01:38:29;;;;;;;0.00;0.00;;;;;;;;;;1747009;28;20522;-72
2022/10/28 01:39:23;;;;;;;0.00;0.00;;;;;;;;;;1746935;28;20245;-72
2022/10/28 01:40:21;;;;;;;0.00;0.00;;;;;;;;;;1747352;28;20209;-72
2022/10/28 01:41:14;;;;;;;0.00;0.00;;;;;;;;;;1746864;28;20229;-72
2022/10/28 01:42:14;;;;;;;0.00;0.00;;;;;;;;;;1746747;28;20239;-72
2022/10/28 01:43:09;;;;;;;0.00;0.00;;;;;;;;;;1746570;28;20194;-72
2022/10/28 01:44:05;;;;;;;0.00;0.00;;;;;;;;;;1747131;28;20218;-72
2022/10/28 01:45:02;;;;;;;0.00;0.00;;;;;;;;;;1746642;28;20248;-72
2022/10/28 01:45:57;;;;;;;0.00;0.00;;;;;;;;;;1740233;28;20301;-72
2022/10/28 01:46:53;;;;;;;0.00;0.00;;;;;;;;;;1739855;28;20260;-72
2022/10/28 01:47:49;;;;;;;0.00;0.00;;;;;;;;;;1739666;28;20634;-72
2022/10/28 01:48:43;;;;;;;0.00;0.00;;;;;;;;;;1736361;28;20696;-72
2022/10/28 01:49:41;;;;;;;0.00;0.00;;;;;;;;;;1739817;28;20249;-72
2022/10/28 01:50:36;;;;;;;0.00;0.00;;;;;;;;;;1740258;28;20213;-72
2022/10/28 01:51:30;;;;;;;0.00;0.00;;;;;;;;;;1739891;28;20258;-71
2022/10/28 01:52:24;;;;;;;0.00;0.00;;;;;;;;;;1739956;28;20324;-70
2022/10/28 01:53:19;;;;;;;0.00;0.00;;;;;;;;;;1739497;28;20260;-70
2022/10/28 01:54:10;;;;;;;0.00;0.00;;;;;;;;;;1739865;28;20226;-70
2022/10/28 01:55:06;;;;;;;0.00;0.00;;;;;;;;;;1740061;28;20594;-71
2022/10/28 01:55:59;;;;;;;0.00;0.00;;;;;;;;;;1740034;28;20230;-71
2022/10/28 01:56:53;;;;;;;0.00;0.00;;;;;;;;;;1740095;28;20286;-70
2022/10/28 01:57:45;;;;;;;0.00;0.00;;;;;;;;;;1740099;28;20624;-71
2022/10/28 01:58:38;;;;;;;0.00;0.00;;;;;;;;;;1740117;28;20518;-70
2022/10/28 01:59:30;;;;;;;0.00;0.00;;;;;;;;;;1739390;28;20245;-70
2022/10/28 02:00:22;;;;;;;0.00;0.00;;;;;;;;;;1740468;28;20198;-71
2022/10/28 02:01:13;;;;;;;0.00;0.00;;;;;;;;;;1739816;28;20673;-71
2022/10/28 02:02:06;;;;;;;0.00;0.00;;;;;;;;;;1739992;28;20222;-70
2022/10/28 02:02:58;;;;;;;0.00;0.00;;;;;;;;;;1739894;28;20241;-70
2022/10/28 02:03:50;;;;;;;0.00;0.00;;;;;;;;;;1739972;28;20317;-71
2022/10/28 02:04:41;;;;;;;0.00;0.00;;;;;;;;;;1739572;28;20213;-71
2022/10/28 02:05:40;;;;;;;0.00;0.00;;;;;;;;;;1740379;28;20771;-71
2022/10/28 02:06:33;;;;;;;0.00;0.00;;;;;;;;;;1739429;28;20648;-71
2022/10/28 02:07:25;;;;;;;0.00;0.00;;;;;;;;;;1739939;28;20198;-70
2022/10/28 02:08:21;;;;;;;0.00;0.00;;;;;;;;;;1740008;28;20241;-70
2022/10/28 02:09:18;;;;;;;0.00;0.00;;;;;;;;;;1739706;28;20199;-70
2022/10/28 02:10:13;;;;;;;0.00;0.00;;;;;;;;;;1740229;28;20290;-70
2022/10/28 02:11:20;;;;;;;0.00;0.00;;;;;;;;;;1739719;28;20225;-72
2022/10/28 02:12:16;;;;;;;0.00;0.00;;;;;;;;;;1739884;28;20373;-72
2022/10/28 02:13:12;;;;;;;0.00;0.00;;;;;;;;;;1739651;28;20187;-72
2022/10/28 02:14:10;;;;;;;0.00;0.00;;;;;;;;;;1740140;28;20222;-72
2022/10/28 02:15:29;;;;;;;0.00;0.00;;;;;;;;;;1746862;28;20675;-72
2022/10/28 02:16:24;;;;;;;0.00;0.00;;;;;;;;;;1746947;28;20282;-72
2022/10/28 02:17:22;;;;;;;0.00;0.00;;;;;;;;;;1747016;28;20236;-72
2022/10/28 02:18:19;;;;;;;0.00;0.00;;;;;;;;;;1746802;28;20298;-72
2022/10/28 02:19:16;;;;;;;0.00;0.00;;;;;;;;;;1746891;28;20508;-72
2022/10/28 02:20:09;;;;;;;0.00;0.00;;;;;;;;;;1747254;28;20241;-71
2022/10/28 02:21:03;;;;;;;0.00;0.00;;;;;;;;;;1746591;28;20605;-72
2022/10/28 02:21:59;;;;;;;0.00;0.00;;;;;;;;;;1746543;28;20237;-72
2022/10/28 02:22:53;;;;;;;0.00;0.00;;;;;;;;;;1739947;28;20210;-72
2022/10/28 02:23:46;;;;;;;0.00;0.00;;;;;;;;;;1746354;28;20683;-72
2022/10/28 02:24:40;;;;;;;0.00;0.00;;;;;;;;;;1746838;28;20210;-72
2022/10/28 02:25:34;;;;;;;0.00;0.00;;;;;;;;;;1747306;28;20335;-72
2022/10/28 02:26:30;;;;;;;0.00;0.00;;;;;;;;;;1746365;28;20299;-71
2022/10/28 02:27:29;;;;;;;0.00;0.00;;;;;;;;;;1747166;28;20670;-72
2022/10/28 02:28:22;;;;;;;0.00;0.00;;;;;;;;;;1746720;28;20592;-72
2022/10/28 02:29:16;;;;;;;0.00;0.00;;;;;;;;;;1746758;28;20651;-72
2022/10/28 02:30:09;;;;;;;0.00;0.00;;;;;;;;;;1747044;28;20635;-72
2022/10/28 02:31:02;;;;;;;0.00;0.00;;;;;;;;;;1746537;28;20209;-71
2022/10/28 02:31:55;;;;;;;0.00;0.00;;;;;;;;;;1746284;28;20293;-71
2022/10/28 02:32:51;;;;;;;0.00;0.00;;;;;;;;;;1746900;28;20670;-71
2022/10/28 02:33:43;;;;;;;0.00;0.00;;;;;;;;;;1747045;28;20249;-71
2022/10/28 02:34:39;;;;;;;0.00;0.00;;;;;;;;;;1746547;28;20289;-71
2022/10/28 02:35:32;;;;;;;0.00;0.00;;;;;;;;;;1747287;28;20352;-70
2022/10/28 02:36:25;;;;;;;0.00;0.00;;;;;;;;;;1746369;28;20207;-72
2022/10/28 02:37:20;;;;;;;0.00;0.00;;;;;;;;;;1746750;28;20560;-72
2022/10/28 02:38:16;;;;;;;0.00;0.00;;;;;;;;;;1746531;28;20612;-72
2022/10/28 02:39:07;;;;;;;0.00;0.00;;;;;;;;;;1747166;28;20191;-72
2022/10/28 02:40:04;;;;;;;0.00;0.00;;;;;;;;;;1748221;28;20268;-72
2022/10/28 02:40:58;;;;;;;0.00;0.00;;;;;;;;;;1748142;28;20553;-71
2022/10/28 02:41:52;;;;;;;0.00;0.00;;;;;;;;;;1747809;28;20285;-71
2022/10/28 02:42:45;;;;;;;0.00;0.00;;;;;;;;;;1747658;28;20222;-71
2022/10/28 02:43:38;;;;;;;0.00;0.00;;;;;;;;;;1748104;28;20212;-71
2022/10/28 02:44:31;;;;;;;0.00;0.00;;;;;;;;;;1747855;28;20309;-71
2022/10/28 02:45:24;;;;;;;0.00;0.00;;;;;;;;;;1748265;28;20216;-71
2022/10/28 02:46:16;;;;;;;0.00;0.00;;;;;;;;;;1738582;28;20241;-71
2022/10/28 02:47:10;;;;;;;0.00;0.00;;;;;;;;;;1740114;28;20203;-71
2022/10/28 02:48:06;;;;;;;0.00;0.00;;;;;;;;;;1740881;28;20199;-71
2022/10/28 02:49:01;;;;;;;0.00;0.00;;;;;;;;;;1738646;28;20629;-71
2022/10/28 02:49:54;;;;;;;0.00;0.00;;;;;;;;;;1740958;28;20214;-71
2022/10/28 02:50:48;;;;;;;0.00;0.00;;;;;;;;;;1743297;28;21674;-71
2022/10/28 02:51:40;;;;;;;0.00;0.00;;;;;;;;;;1740186;28;20234;-72
2022/10/28 02:52:33;;;;;;;0.00;0.00;;;;;;;;;;1735802;28;20214;-72
2022/10/28 02:53:28;;;;;;;0.00;0.00;;;;;;;;;;1735572;28;20307;-72
2022/10/28 02:54:22;;;;;;;0.00;0.00;;;;;;;;;;1738419;28;20196;-72
2022/10/28 02:55:13;;;;;;;0.00;0.00;;;;;;;;;;1745855;28;20729;-72
2022/10/28 02:56:07;;;;;;;0.00;0.00;;;;;;;;;;1745409;28;20281;-72
2022/10/28 02:57:00;;;;;;;0.00;0.00;;;;;;;;;;1748193;28;20629;-71
2022/10/28 02:57:52;;;;;;;0.00;0.00;;;;;;;;;;1747685;28;20271;-71
2022/10/28 02:58:44;;;;;;;0.00;0.00;;;;;;;;;;1747654;28;20229;-71
2022/10/28 02:59:36;;;;;;;0.00;0.00;;;;;;;;;;1747815;28;20211;-71
2022/10/28 03:00:27;;;;;;;0.00;0.00;;;;;;;;;;1748398;28;20245;-71
2022/10/28 03:01:19;;;;;;;0.00;0.00;;;;;;;;;;1747769;28;20225;-71
2022/10/28 03:02:10;;;;;;;0.00;0.00;;;;;;;;;;1747860;28;20240;-71
2022/10/28 03:03:04;;;;;;;0.00;0.00;;;;;;;;;;1747881;28;20202;-71
2022/10/28 03:03:55;;;;;;;0.00;0.00;;;;;;;;;;1747486;28;20238;-70
2022/10/28 03:04:47;;;;;;;0.00;0.00;;;;;;;;;;1747970;28;20761;-71
2022/10/28 03:05:38;;;;;;;0.00;0.00;;;;;;;;;;1748421;28;20648;-71
2022/10/28 03:06:30;;;;;;;0.00;0.00;;;;;;;;;;1747719;28;20245;-72
2022/10/28 03:07:21;;;;;;;0.00;0.00;;;;;;;;;;1748186;28;20294;-72
2022/10/28 03:08:13;;;;;;;0.00;0.00;;;;;;;;;;1747553;28;20202;-72
2022/10/28 03:09:04;;;;;;;0.00;0.00;;;;;;;;;;1747458;28;20226;-72
2022/10/28 03:09:56;;;;;;;0.00;0.00;;;;;;;;;;1748030;28;20656;-72
2022/10/28 03:10:47;;;;;;;0.00;0.00;;;;;;;;;;1748407;28;20648;-72
2022/10/28 03:11:39;;;;;;;0.00;0.00;;;;;;;;;;1747819;28;20241;-70
2022/10/28 03:12:30;;;;;;;0.00;0.00;;;;;;;;;;1747681;28;20327;-71
2022/10/28 03:13:22;;;;;;;0.00;0.00;;;;;;;;;;1747804;28;20230;-70
2022/10/28 03:14:13;;;;;;;0.00;0.00;;;;;;;;;;1747808;28;20284;-71
2022/10/28 03:15:06;;;;;;;0.00;0.00;;;;;;;;;;1748113;28;20289;-71
2022/10/28 03:15:57;;;;;;;0.00;0.00;;;;;;;;;;1747754;28;20849;-71
2022/10/28 03:16:49;;;;;;;0.00;0.00;;;;;;;;;;1748036;28;20198;-71
2022/10/28 03:17:40;;;;;;;0.00;0.00;;;;;;;;;;1747524;28;20210;-70
2022/10/28 03:18:33;;;;;;;0.00;0.00;;;;;;;;;;1747999;28;20496;-70
2022/10/28 03:19:24;;;;;;;0.00;0.00;;;;;;;;;;1747588;28;20248;-71
2022/10/28 03:20:15;;;;;;;0.00;0.00;;;;;;;;;;1748013;28;20236;-71
2022/10/28 03:21:08;;;;;;;0.00;0.00;;;;;;;;;;1747685;28;20198;-70
2022/10/28 03:21:59;;;;;;;0.00;0.00;;;;;;;;;;1747207;28;20298;-70
2022/10/28 03:22:51;;;;;;;0.00;0.00;;;;;;;;;;1745861;28;20235;-71
2022/10/28 03:23:42;;;;;;;0.00;0.00;;;;;;;;;;1740718;28;20278;-71
2022/10/28 03:24:34;;;;;;;0.00;0.00;;;;;;;;;;1740756;28;20273;-70
2022/10/28 03:25:25;;;;;;;0.00;0.00;;;;;;;;;;1741276;28;20320;-70
2022/10/28 03:26:17;;;;;;;0.00;0.00;;;;;;;;;;1740710;28;20207;-70
2022/10/28 03:27:08;;;;;;;0.00;0.00;;;;;;;;;;1741158;28;20234;-70
2022/10/28 03:28:00;;;;;;;0.00;0.00;;;;;;;;;;1740845;28;20644;-71
2022/10/28 03:28:51;;;;;;;0.00;0.00;;;;;;;;;;1741181;28;20230;-71
2022/10/28 03:29:43;;;;;;;0.00;0.00;;;;;;;;;;1740715;28;20317;-71
2022/10/28 03:30:34;;;;;;;0.00;0.00;;;;;;;;;;1740969;28;20253;-71
2022/10/28 03:31:26;;;;;;;0.00;0.00;;;;;;;;;;1740646;28;20199;-71
2022/10/28 03:32:17;;;;;;;0.00;0.00;;;;;;;;;;1740583;28;20683;-71
2022/10/28 03:33:09;;;;;;;0.00;0.00;;;;;;;;;;1740723;28;20198;-71
2022/10/28 03:34:02;;;;;;;0.00;0.00;;;;;;;;;;1740938;28;20214;-71
2022/10/28 03:34:54;;;;;;;0.00;0.00;;;;;;;;;;1747387;28;20213;-71
2022/10/28 03:35:45;;;;;;;0.00;0.00;;;;;;;;;;1747784;28;20261;-71
2022/10/28 03:36:37;;;;;;;0.00;0.00;;;;;;;;;;1747288;28;20690;-72
2022/10/28 03:37:28;;;;;;;0.00;0.00;;;;;;;;;;1747619;28;20244;-72
2022/10/28 03:38:20;;;;;;;0.00;0.00;;;;;;;;;;1747582;28;20240;-72
2022/10/28 03:39:11;;;;;;;0.00;0.00;;;;;;;;;;1747804;28;20230;-72
2022/10/28 03:40:06;;;;;;;0.00;0.00;;;;;;;;;;1748057;28;20586;-72
2022/10/28 03:40:57;;;;;;;0.00;0.00;;;;;;;;;;1747640;28;20187;-72
2022/10/28 03:41:49;;;;;;;0.00;0.00;;;;;;;;;;1747214;28;20221;-72
2022/10/28 03:42:41;;;;;;;0.00;0.00;;;;;;;;;;1747462;28;20269;-72
2022/10/28 03:43:33;;;;;;;0.00;0.00;;;;;;;;;;1747968;28;20202;-72
2022/10/28 03:44:24;;;;;;;0.00;0.00;;;;;;;;;;1747175;28;20260;-72
2022/10/28 03:45:16;;;;;;;0.00;0.00;;;;;;;;;;1736965;28;20195;-72
2022/10/28 03:46:07;;;;;;;0.00;0.00;;;;;;;;;;1739551;28;20238;-72
2022/10/28 03:46:59;;;;;;;0.00;0.00;;;;;;;;;;1740577;28;20226;-72
2022/10/28 03:47:50;;;;;;;0.00;0.00;;;;;;;;;;1743956;28;20249;-72
2022/10/28 03:48:42;;;;;;;0.00;0.00;;;;;;;;;;1743778;28;20248;-72
2022/10/28 03:49:35;;;;;;;0.00;0.00;;;;;;;;;;1740775;28;20245;-72
2022/10/28 03:50:27;;;;;;;0.00;0.00;;;;;;;;;;1741122;28;20694;-72
2022/10/28 03:51:18;;;;;;;0.00;0.00;;;;;;;;;;1740376;28;20231;-72
2022/10/28 03:52:10;;;;;;;0.00;0.00;;;;;;;;;;1740154;28;20620;-72
2022/10/28 03:53:01;;;;;;;0.00;0.00;;;;;;;;;;1740470;28;20640;-72
2022/10/28 03:53:53;;;;;;;0.00;0.00;;;;;;;;;;1740893;28;20203;-72
2022/10/28 03:54:44;;;;;;;0.00;0.00;;;;;;;;;;1740556;28;20286;-72
2022/10/28 03:55:36;;;;;;;0.00;0.00;;;;;;;;;;1741270;28;20591;-72
2022/10/28 03:56:27;;;;;;;0.00;0.00;;;;;;;;;;1740539;28;20659;-72
2022/10/28 03:57:19;;;;;;;0.00;0.00;;;;;;;;;;1740591;28;20222;-72
2022/10/28 03:58:10;;;;;;;0.00;0.00;;;;;;;;;;1740383;28;20236;-72
2022/10/28 03:59:02;;;;;;;0.00;0.00;;;;;;;;;;1740499;28;20227;-72
2022/10/28 03:59:53;;;;;;;0.00;0.00;;;;;;;;;;1740789;28;20230;-72
2022/10/28 04:00:45;;;;;;;0.00;0.00;;;;;;;;;;1741107;28;20640;-72
2022/10/28 04:01:36;;;;;;;0.00;0.00;;;;;;;;;;1740456;28;20250;-71
2022/10/28 04:02:28;;;;;;;0.00;0.00;;;;;;;;;;1740293;28;20249;-71
2022/10/28 04:03:20;;;;;;;0.00;0.00;;;;;;;;;;1740268;28;20222;-71
2022/10/28 04:04:12;;;;;;;0.00;0.00;;;;;;;;;;1740586;28;20286;-71
2022/10/28 04:05:05;;;;;;;0.00;0.00;;;;;;;;;;1741020;28;20237;-71
2022/10/28 04:05:57;;;;;;;0.00;0.00;;;;;;;;;;1740606;28;20234;-72
2022/10/28 04:06:48;;;;;;;0.00;0.00;;;;;;;;;;1740777;28;20639;-72
2022/10/28 04:07:40;;;;;;;0.00;0.00;;;;;;;;;;1740353;28;20293;-72
2022/10/28 04:08:31;;;;;;;0.00;0.00;;;;;;;;;;1740398;28;20305;-72
2022/10/28 04:09:23;;;;;;;0.00;0.00;;;;;;;;;;1740169;28;20648;-72
2022/10/28 04:10:14;;;;;;;0.00;0.00;;;;;;;;;;1741174;28;20282;-72
2022/10/28 04:11:05;;;;;;;0.00;0.00;;;;;;;;;;1740336;28;20207;-71
2022/10/28 04:11:57;;;;;;;0.00;0.00;;;;;;;;;;1740341;28;20203;-71
2022/10/28 04:12:48;;;;;;;0.00;0.00;;;;;;;;;;1740487;28;20234;-71
2022/10/28 04:13:40;;;;;;;0.00;0.00;;;;;;;;;;1740242;28;20241;-71
2022/10/28 04:14:31;;;;;;;0.00;0.00;;;;;;;;;;1740546;28;20239;-71
2022/10/28 04:15:23;;;;;;;0.00;0.00;;;;;;;;;;1740980;28;20213;-71
2022/10/28 04:16:14;;;;;;;0.00;0.00;;;;;;;;;;1740519;28;20245;-71
2022/10/28 04:17:06;;;;;;;0.00;0.00;;;;;;;;;;1740703;28;20663;-71
2022/10/28 04:17:58;;;;;;;0.00;0.00;;;;;;;;;;1740289;28;20656;-71
2022/10/28 04:18:50;;;;;;;0.00;0.00;;;;;;;;;;1746872;28;20244;-71
2022/10/28 04:19:41;;;;;;;0.00;0.00;;;;;;;;;;1746771;28;20378;-71
2022/10/28 04:20:34;;;;;;;0.00;0.00;;;;;;;;;;1748067;28;20295;-71
2022/10/28 04:21:25;;;;;;;0.00;0.00;;;;;;;;;;1747087;28;20240;-72
2022/10/28 04:22:18;;;;;;;0.00;0.00;;;;;;;;;;1747380;28;20651;-72
2022/10/28 04:23:13;;;;;;;0.00;0.00;;;;;;;;;;1747306;28;20305;-72
2022/10/28 04:24:06;;;;;;;0.00;0.00;;;;;;;;;;1747443;28;20195;-72
2022/10/28 04:24:57;;;;;;;0.00;0.00;;;;;;;;;;1747047;28;20742;-72
2022/10/28 04:25:52;;;;;;;0.00;0.00;;;;;;;;;;1747502;28;20272;-72
2022/10/28 04:26:43;;;;;;;0.00;0.00;;;;;;;;;;1747394;28;20310;-71
2022/10/28 04:27:35;;;;;;;0.00;0.00;;;;;;;;;;1747096;28;20202;-71
2022/10/28 04:28:26;;;;;;;0.00;0.00;;;;;;;;;;1747370;28;20285;-71
2022/10/28 04:29:19;;;;;;;0.00;0.00;;;;;;;;;;1747353;28;20497;-71
2022/10/28 04:30:11;;;;;;;0.00;0.00;;;;;;;;;;1747041;28;20198;-71
2022/10/28 04:31:03;;;;;;;0.00;0.00;;;;;;;;;;1744721;28;20620;-72
2022/10/28 04:31:54;;;;;;;0.00;0.00;;;;;;;;;;1740103;28;20210;-72
2022/10/28 04:32:47;;;;;;;0.00;0.00;;;;;;;;;;1740435;28;20556;-72
2022/10/28 04:33:38;;;;;;;0.00;0.00;;;;;;;;;;1740499;28;20269;-72
2022/10/28 04:34:30;;;;;;;0.00;0.00;;;;;;;;;;1740163;28;20207;-72
2022/10/28 04:35:21;;;;;;;0.00;0.00;;;;;;;;;;1740505;28;20265;-72
2022/10/28 04:36:14;;;;;;;0.00;0.00;;;;;;;;;;1740147;28;20214;-71
2022/10/28 04:37:05;;;;;;;0.00;0.00;;;;;;;;;;1740633;28;20245;-70
2022/10/28 04:37:57;;;;;;;0.00;0.00;;;;;;;;;;1740398;28;20262;-71
2022/10/28 04:38:50;;;;;;;0.00;0.00;;;;;;;;;;1740382;28;20242;-71
2022/10/28 04:39:41;;;;;;;0.00;0.00;;;;;;;;;;1740417;28;20654;-71
2022/10/28 04:40:33;;;;;;;0.00;0.00;;;;;;;;;;1740554;28;20256;-72
2022/10/28 04:41:24;;;;;;;0.00;0.00;;;;;;;;;;1740324;28;20241;-72
2022/10/28 04:42:16;;;;;;;0.00;0.00;;;;;;;;;;1740182;28;20195;-72
2022/10/28 04:43:09;;;;;;;0.00;0.00;;;;;;;;;;1740245;28;20227;-72
2022/10/28 04:44:01;;;;;;;0.00;0.00;;;;;;;;;;1741084;28;20209;-72
2022/10/28 04:44:52;;;;;;;0.00;0.00;;;;;;;;;;1742386;28;20325;-72
2022/10/28 04:45:44;;;;;;;0.00;0.00;;;;;;;;;;1740886;28;20230;-72
2022/10/28 04:46:35;;;;;;;0.00;0.00;;;;;;;;;;1739533;28;20302;-72
2022/10/28 04:47:27;;;;;;;0.00;0.00;;;;;;;;;;1744117;28;20202;-72
2022/10/28 04:48:18;;;;;;;0.00;0.00;;;;;;;;;;1741598;28;20250;-72
2022/10/28 04:49:10;;;;;;;0.00;0.00;;;;;;;;;;1740175;28;20195;-72
2022/10/28 04:50:02;;;;;;;0.00;0.00;;;;;;;;;;1740402;28;20653;-72
2022/10/28 04:50:54;;;;;;;0.00;0.00;;;;;;;;;;1740109;28;20225;-72
2022/10/28 04:51:46;;;;;;;0.00;0.00;;;;;;;;;;1739976;28;20246;-72
2022/10/28 04:52:38;;;;;;;0.00;0.00;;;;;;;;;;1740051;28;20260;-72
2022/10/28 04:53:29;;;;;;;0.00;0.00;;;;;;;;;;1740484;28;20709;-72
2022/10/28 04:54:21;;;;;;;0.00;0.00;;;;;;;;;;1740204;28;20198;-72
2022/10/28 04:55:12;;;;;;;0.00;0.00;;;;;;;;;;1740563;28;20254;-72
2022/10/28 04:56:04;;;;;;;0.00;0.00;;;;;;;;;;1740283;28;20207;-72
2022/10/28 04:56:56;;;;;;;0.00;0.00;;;;;;;;;;1739926;28;20289;-72
2022/10/28 04:57:52;;;;;;;0.00;0.00;;;;;;;;;;1740332;28;20219;-72
2022/10/28 04:58:44;;;;;;;0.00;0.00;;;;;;;;;;1740411;28;20242;-72
2022/10/28 04:59:36;;;;;;;0.00;0.00;;;;;;;;;;1740003;28;20301;-72
2022/10/28 05:00:29;;;;;;;0.00;0.00;;;;;;;;;;1740845;28;20207;-72
2022/10/28 05:01:20;;;;;;;0.00;0.00;;;;;;;;;;1739996;28;20273;-72
2022/10/28 05:02:12;;;;;;;0.00;0.00;;;;;;;;;;1739270;28;20237;-72
2022/10/28 05:03:03;;;;;;;0.00;0.00;;;;;;;;;;1740135;28;20242;-72
2022/10/28 05:03:55;;;;;;;0.00;0.00;;;;;;;;;;1740321;28;20198;-72
2022/10/28 05:04:46;;;;;;;0.00;0.00;;;;;;;;;;1740041;28;20338;-72
2022/10/28 05:05:39;;;;;;;0.00;0.00;;;;;;;;;;1740618;28;20234;-72
2022/10/28 05:06:30;;;;;;;0.00;0.00;;;;;;;;;;1740002;28;20226;-71
2022/10/28 05:07:24;;;;;;;0.00;0.00;;;;;;;;;;1740280;28;20514;-70
2022/10/28 05:08:15;;;;;;;0.00;0.00;;;;;;;;;;1746608;28;20194;-70
2022/10/28 05:09:07;;;;;;;0.00;0.00;;;;;;;;;;1746780;28;20268;-70
2022/10/28 05:09:58;;;;;;;0.00;0.00;;;;;;;;;;1747221;28;20241;-70
2022/10/28 05:10:50;;;;;;;0.00;0.00;;;;;;;;;;1747554;28;20194;-71
2022/10/28 05:11:41;;;;;;;0.00;0.00;;;;;;;;;;1747096;28;20252;-72
2022/10/28 05:12:33;;;;;;;0.00;0.00;;;;;;;;;;1746849;28;20210;-72
2022/10/28 05:13:24;;;;;;;0.00;0.00;;;;;;;;;;1746816;28;20301;-72
2022/10/28 05:14:16;;;;;;;0.00;0.00;;;;;;;;;;1747185;28;20613;-72
2022/10/28 05:15:08;;;;;;;0.00;0.00;;;;;;;;;;1747374;28;20297;-72
2022/10/28 05:16:00;;;;;;;0.00;0.00;;;;;;;;;;1746983;28;20198;-71
2022/10/28 05:16:51;;;;;;;0.00;0.00;;;;;;;;;;1747365;28;20297;-71
2022/10/28 05:17:44;;;;;;;0.00;0.00;;;;;;;;;;1746704;28;20198;-71
2022/10/28 05:18:35;;;;;;;0.00;0.00;;;;;;;;;;1746786;28;20237;-70
2022/10/28 05:19:27;;;;;;;0.00;0.00;;;;;;;;;;1746834;28;20212;-71